Time;durP1;ratioP1;P1;durP2;ratioP2;P2;SDS_P1;SDS_P2;PMS_P1;PMS_P2;Temp;Humidity;BMP_temperature;BMP_pressure;BME280_temperature;BME280_humidity;BME280_pressure;Samples;Min_cycle;Max_cycle;Signal;HPM_P1;HPM_P2
2021/05/01 00:00:07;;;;;;;12.58;7.45;;;;;;;8.41;65.53;96247.23;1693063;83;21552;-84
2021/05/01 00:02:36;;;;;;;9.98;6.92;;;;;;;8.33;65.55;96249.91;1691824;84;21491;-84
2021/05/01 00:05:05;;;;;;;11.63;7.85;;;;;;;8.39;65.79;96248.58;1703639;84;21139;-84
2021/05/01 00:07:32;;;;;;;10.72;7.45;;;;;;;8.35;65.56;96260.76;1709703;84;21186;-84
2021/05/01 00:09:59;;;;;;;12.60;7.90;;;;;;;8.29;65.72;96252.02;1701438;84;21537;-84
2021/05/01 00:12:26;;;;;;;11.73;8.10;;;;;;;8.27;65.96;96245.69;1692684;84;21490;-84
2021/05/01 00:14:53;;;;;;;11.65;8.08;;;;;;;8.22;66.08;96243.09;1699086;84;21182;-84
2021/05/01 00:17:20;;;;;;;11.43;8.13;;;;;;;8.26;66.25;96235.41;1709676;84;21523;-84
2021/05/01 00:19:47;;;;;;;13.40;8.18;;;;;;;8.27;66.09;96240.94;1708740;82;21526;-84
2021/05/01 00:22:15;;;;;;;14.00;8.35;;;;;;;7.99;66.13;96249.78;1698844;84;21551;-84
2021/05/01 00:24:42;;;;;;;10.55;7.40;;;;;;;7.74;66.69;96251.99;1709170;84;21646;-84
2021/05/01 00:27:10;;;;;;;12.23;7.78;;;;;;;7.58;67.43;96251.75;1709690;84;21163;-84
2021/05/01 00:29:37;;;;;;;14.20;9.35;;;;;;;7.50;67.61;96257.58;1709430;82;21178;-84
2021/05/01 00:32:05;;;;;;;13.55;9.10;;;;;;;7.48;68.01;96266.83;1707298;84;21133;-84
2021/05/01 00:34:32;;;;;;;15.28;9.98;;;;;;;7.55;68.19;96258.88;1683068;84;21195;-84
2021/05/01 00:36:59;;;;;;;14.43;9.63;;;;;;;7.64;68.21;96263.09;1694787;84;21123;-84
2021/05/01 00:39:26;;;;;;;14.15;8.78;;;;;;;7.68;68.06;96263.60;1702913;82;21214;-84
2021/05/01 00:41:53;;;;;;;14.03;9.75;;;;;;;7.78;68.05;96265.44;1702663;84;21194;-84
2021/05/01 00:44:20;;;;;;;16.32;9.68;;;;;;;7.86;67.96;96268.83;1698706;84;21183;-84
2021/05/01 00:46:47;;;;;;;14.73;9.40;;;;;;;7.87;67.83;96270.41;1693560;84;21191;-84
2021/05/01 00:49:14;;;;;;;15.05;9.23;;;;;;;7.79;67.93;96276.25;1702789;83;21183;-84
2021/05/01 00:51:41;;;;;;;14.03;8.38;;;;;;;7.79;67.96;96285.48;1704263;83;21142;-84
2021/05/01 00:54:08;;;;;;;13.60;9.38;;;;;;;7.85;68.06;96282.30;1705232;84;21103;-84
2021/05/01 00:56:36;;;;;;;13.55;9.55;;;;;;;7.80;68.00;96276.51;1709388;84;21491;-84
2021/05/01 00:59:04;;;;;;;13.08;9.35;;;;;;;7.85;68.04;96270.41;1707925;83;21217;-84
2021/05/01 01:01:31;;;;;;;11.70;8.23;;;;;;;7.86;67.87;96275.42;1706933;82;21221;-84
2021/05/01 01:03:58;;;;;;;14.58;8.90;;;;;;;7.86;67.91;96270.67;1702682;84;21159;-84
2021/05/01 01:06:25;;;;;;;12.82;8.50;;;;;;;7.92;68.01;96266.45;1692872;83;21168;-84
2021/05/01 01:08:52;;;;;;;11.65;8.35;;;;;;;7.87;67.59;96269.61;1713912;82;21155;-84
2021/05/01 01:11:19;;;;;;;11.53;7.87;;;;;;;7.85;67.91;96267.78;1717295;83;21158;-84
2021/05/01 01:13:47;;;;;;;10.63;7.40;;;;;;;7.91;67.99;96264.08;1715520;82;21507;-84
2021/05/01 01:16:15;;;;;;;12.00;7.78;;;;;;;7.98;67.96;96269.84;1720474;83;21509;-84
2021/05/01 01:18:42;;;;;;;13.15;8.60;;;;;;;8.07;67.97;96263.49;1693460;83;21192;-84
2021/05/01 01:21:10;;;;;;;13.75;8.50;;;;;;;8.12;67.97;96254.22;1688287;84;21136;-84
2021/05/01 01:23:37;;;;;;;12.45;8.63;;;;;;;8.21;68.05;96252.61;1669182;85;21160;-84
2021/05/01 01:26:05;;;;;;;13.45;8.43;;;;;;;8.29;68.02;96254.12;1672021;85;21169;-84
2021/05/01 01:28:32;;;;;;;11.50;7.67;;;;;;;8.34;67.98;96254.69;1665604;84;21155;-84
2021/05/01 01:30:59;;;;;;;12.70;8.25;;;;;;;8.29;67.88;96255.45;1673021;85;21104;-84
2021/05/01 01:33:26;;;;;;;14.50;8.40;;;;;;;8.19;67.71;96262.66;1669420;85;21140;-84
2021/05/01 01:35:53;;;;;;;14.13;9.48;;;;;;;8.03;67.88;96263.25;1674369;85;21108;-84
2021/05/01 01:38:20;;;;;;;15.85;10.15;;;;;;;7.75;68.48;96273.89;1669078;85;21120;-84
2021/05/01 01:40:47;;;;;;;14.10;9.63;;;;;;;7.62;68.79;96278.41;1661406;85;21175;-84
2021/05/01 01:43:14;;;;;;;13.48;8.78;;;;;;;7.65;69.02;96278.66;1658536;85;21191;-84
2021/05/01 01:45:42;;;;;;;16.02;10.20;;;;;;;7.68;69.20;96273.37;1655060;85;21151;-84
2021/05/01 01:48:09;;;;;;;14.43;10.82;;;;;;;7.66;69.24;96267.05;1678286;85;21149;-84
2021/05/01 01:50:36;;;;;;;17.20;9.75;;;;;;;7.76;69.33;96261.48;1677208;85;21146;-84
2021/05/01 01:53:03;;;;;;;16.10;9.48;;;;;;;7.86;69.39;96264.08;1667326;85;21145;-84
2021/05/01 01:55:30;;;;;;;15.68;10.18;;;;;;;7.96;69.54;96265.38;1661970;85;21183;-84
2021/05/01 01:57:57;;;;;;;16.05;10.98;;;;;;;7.99;69.62;96268.25;1658244;85;21135;-84
2021/05/01 02:00:28;;;;;;;15.75;10.65;;;;;;;7.88;69.66;96275.16;1678693;84;21165;-84
2021/05/01 02:02:56;;;;;;;17.75;10.95;;;;;;;7.89;69.71;96275.44;1708927;84;21146;-84
2021/05/01 02:05:24;;;;;;;15.50;10.75;;;;;;;7.98;69.82;96276.45;1709647;84;21124;-84
2021/05/01 02:07:51;;;;;;;14.95;11.95;;;;;;;8.10;70.01;96271.66;1700184;84;21130;-84
2021/05/01 02:10:19;;;;;;;16.70;11.90;;;;;;;8.21;69.75;96262.64;1709137;84;21541;-84
2021/05/01 02:12:46;;;;;;;15.32;10.43;;;;;;;8.28;69.72;96256.52;1709686;84;21186;-84
2021/05/01 02:15:20;;;;;;;15.32;10.60;;;;;;;8.38;69.88;96258.36;1704939;84;21163;-84
2021/05/01 02:17:54;;;;;;;14.53;10.05;;;;;;;8.41;69.92;96264.94;1709753;84;21144;-84
2021/05/01 02:20:32;;;;;;;14.07;9.80;;;;;;;8.46;70.11;96268.89;1709280;82;21136;-84
2021/05/01 02:22:59;;;;;;;15.58;10.28;;;;;;;8.45;70.10;96265.47;1709646;84;21142;-84
2021/05/01 02:25:27;;;;;;;15.93;10.55;;;;;;;8.51;70.30;96259.61;1709634;84;21211;-85
2021/05/01 02:27:55;;;;;;;15.70;10.78;;;;;;;8.59;70.47;96266.97;1709642;84;21151;-84
2021/05/01 02:30:26;;;;;;;17.95;11.48;;;;;;;8.52;70.38;96261.19;1697497;84;21572;-84
2021/05/01 02:32:54;;;;;;;;;;;;;;;8.41;70.62;96255.70;1702187;84;21143;-84
2021/05/01 02:35:25;;;;;;;15.83;10.43;;;;;;;8.43;70.68;96252.24;1728390;83;20122;-84
2021/05/01 02:37:54;;;;;;;14.38;10.55;;;;;;;8.49;70.83;96247.20;1737243;82;21114;-84
2021/05/01 02:40:24;;;;;;;14.05;10.28;;;;;;;8.55;71.10;96235.53;1733672;81;21153;-84
2021/05/01 02:42:51;;;;;;;15.25;10.18;;;;;;;8.59;71.32;96224.70;1723436;83;21275;-84
2021/05/01 02:45:20;;;;;;;15.60;10.55;;;;;;;8.65;71.55;96228.08;1744028;81;21512;-85
2021/05/01 02:47:49;;;;;;;15.98;9.95;;;;;;;8.67;71.59;96227.27;1736444;81;21198;-85
2021/05/01 02:50:18;;;;;;;16.15;11.55;;;;;;;8.74;71.67;96228.55;1675928;84;21113;-84
2021/05/01 02:52:45;;;;;;;16.65;12.07;;;;;;;8.68;71.57;96228.84;1667824;84;21190;-84
2021/05/01 02:55:14;;;;;;;17.00;12.28;;;;;;;8.67;71.64;96224.09;1670233;85;21175;-84
2021/05/01 02:57:42;;;;;;;15.80;11.40;;;;;;;8.65;71.66;96227.55;1660528;85;21199;-84
2021/05/01 03:00:14;;;;;;;13.95;11.25;;;;;;;8.60;71.74;96227.59;1676585;85;21135;-85
2021/05/01 03:02:42;;;;;;;18.92;12.03;;;;;;;8.58;72.13;96219.13;1711546;83;21508;-84
2021/05/01 03:05:13;;;;;;;15.48;12.33;;;;;;;8.29;72.06;96215.84;1714047;83;21139;-85
2021/05/01 03:07:41;;;;;;;17.80;11.78;;;;;;;8.10;72.56;96213.57;1685248;84;21139;-85
2021/05/01 03:10:19;;;;;;;15.72;11.48;;;;;;;8.06;72.90;96207.27;1709058;82;21212;-84
2021/05/01 03:12:46;;;;;;;16.70;10.40;;;;;;;8.15;73.33;96202.97;1712466;83;21149;-84
2021/05/01 03:15:15;;;;;;;15.43;11.12;;;;;;;8.25;73.57;96194.22;1719793;82;21142;-84
2021/05/01 03:17:45;;;;;;;16.20;11.78;;;;;;;8.34;73.71;96184.70;1717518;83;21147;-84
2021/05/01 03:20:15;;;;;;;16.67;11.80;;;;;;;8.38;73.78;96177.01;1727732;81;21546;-84
2021/05/01 03:22:44;;;;;;;17.27;13.10;;;;;;;8.35;73.90;96169.64;1737294;82;21126;-84
2021/05/01 03:25:11;;;;;;;19.77;13.48;;;;;;;8.38;73.90;96180.97;1732416;81;21690;-84
2021/05/01 03:27:39;;;;;;;17.57;13.35;;;;;;;8.39;73.74;96181.23;1738671;81;21097;-84
2021/05/01 03:30:12;;;;;;;17.85;13.32;;;;;;;8.40;73.57;96186.77;1736333;81;21099;-85
2021/05/01 03:32:40;;;;;;;17.92;14.30;;;;;;;8.40;73.47;96182.80;1740016;81;21529;-84
2021/05/01 03:35:10;;;;;;;20.17;14.75;;;;;;;8.29;73.26;96172.80;1736707;81;21087;-84
2021/05/01 03:37:38;;;;;;;20.27;15.80;;;;;;;8.35;73.47;96178.88;1729755;83;21471;-85
2021/05/01 03:40:09;;;;;;;20.77;15.55;;;;;;;8.27;73.26;96184.16;1744515;80;21147;-84
2021/05/01 03:42:36;;;;;;;;;;;;;;;8.14;73.53;96168.39;1738259;81;21547;-84
2021/05/01 03:45:06;;;;;;;17.40;13.93;;;;;;;8.11;73.75;96173.44;1739659;81;20364;-84
2021/05/01 03:47:33;;;;;;;18.48;13.75;;;;;;;8.06;73.92;96194.59;1741124;81;21210;-84
2021/05/01 03:50:02;;;;;;;20.17;14.80;;;;;;;8.02;74.11;96192.51;1714546;83;21163;-84
2021/05/01 03:52:29;;;;;;;20.17;14.65;;;;;;;7.89;74.26;96198.91;1734330;81;22330;-84
2021/05/01 03:54:56;;;;;;;22.73;15.28;;;;;;;7.92;74.63;96194.40;1715969;83;21519;-84
2021/05/01 03:57:23;;;;;;;19.80;15.55;;;;;;;8.00;74.85;96189.86;1700662;83;21471;-85
2021/05/01 03:59:50;;;;;;;19.70;14.68;;;;;;;7.89;75.32;96192.30;1686090;84;21174;-84
2021/05/01 04:02:19;;;;;;;20.97;15.72;;;;;;;7.70;75.42;96182.33;1690228;84;21167;-84
2021/05/01 04:04:45;;;;;;;19.70;15.25;;;;;;;7.60;75.80;96182.89;1710388;83;21494;-84
2021/05/01 04:07:12;;;;;;;19.65;14.13;;;;;;;7.51;76.13;96188.48;1703547;83;21179;-85
2021/05/01 04:09:40;;;;;;;20.60;14.65;;;;;;;7.54;76.22;96199.27;1692215;83;21148;-84
2021/05/01 04:12:08;;;;;;;19.67;14.40;;;;;;;7.65;76.32;96199.51;1685285;84;21173;-85
2021/05/01 04:14:35;;;;;;;18.20;14.07;;;;;;;7.79;76.36;96197.09;1670159;84;21548;-85
2021/05/01 04:17:02;;;;;;;19.77;13.88;;;;;;;7.91;76.33;96200.73;1663532;85;21118;-85
2021/05/01 04:19:29;;;;;;;21.52;14.87;;;;;;;7.99;76.06;96189.59;1658700;85;21170;-84
2021/05/01 04:22:03;;;;;;;19.87;14.55;;;;;;;8.09;76.27;96198.80;1666998;85;21163;-85
2021/05/01 04:24:26;;;;;;;19.60;14.58;;;;;;;8.19;76.38;96194.79;1668870;85;21144;-84
2021/05/01 04:26:53;;;;;;;19.75;15.53;;;;;;;8.24;76.35;96193.96;1675684;84;21208;-84
2021/05/01 04:29:20;;;;;;;19.65;14.47;;;;;;;8.25;76.21;96198.18;1670846;84;21150;-84
2021/05/01 04:31:47;;;;;;;21.42;15.40;;;;;;;8.25;76.14;96198.97;1664828;84;21139;-84
2021/05/01 04:34:14;;;;;;;23.35;16.37;;;;;;;8.24;76.16;96199.24;1669775;84;21132;-84
2021/05/01 04:36:41;;;;;;;21.48;15.68;;;;;;;8.25;76.42;96197.65;1663673;84;21139;-84
2021/05/01 04:39:08;;;;;;;21.68;16.07;;;;;;;8.33;76.45;96205.01;1680591;84;21218;-85
2021/05/01 04:41:35;;;;;;;19.25;15.23;;;;;;;8.33;76.40;96203.69;1672669;85;21167;-85
2021/05/01 04:44:02;;;;;;;20.23;15.80;;;;;;;8.20;76.42;96202.18;1667962;85;21369;-85
2021/05/01 04:46:29;;;;;;;20.80;16.23;;;;;;;8.16;76.75;96204.55;1659702;85;21203;-84
2021/05/01 04:48:57;;;;;;;20.27;16.35;;;;;;;8.22;76.87;96207.44;1666585;84;21713;-85
2021/05/01 04:51:24;;;;;;;22.95;16.93;;;;;;;8.29;77.06;96207.91;1685501;84;21166;-84
2021/05/01 04:53:51;;;;;;;21.35;18.27;;;;;;;8.37;76.94;96204.48;1670156;85;21363;-84
2021/05/01 04:56:18;;;;;;;26.37;18.57;;;;;;;8.42;77.08;96199.95;1667354;85;21633;-85
2021/05/01 04:58:45;;;;;;;21.33;17.42;;;;;;;8.50;76.85;96209.16;1669360;85;21192;-85
2021/05/01 05:01:12;;;;;;;20.10;15.88;;;;;;;8.44;76.43;96203.63;1677358;85;21199;-84
2021/05/01 05:03:39;;;;;;;21.45;17.12;;;;;;;8.44;76.55;96204.42;1674964;84;21321;-84
2021/05/01 05:06:06;;;;;;;21.27;16.90;;;;;;;8.43;76.62;96199.41;1677337;84;21209;-84
2021/05/01 05:08:33;;;;;;;19.85;15.72;;;;;;;8.48;76.77;96203.36;1692131;83;21163;-85
2021/05/01 05:11:00;;;;;;;19.40;15.25;;;;;;;8.51;76.93;96202.81;1687070;84;21519;-84
2021/05/01 05:13:27;;;;;;;22.20;17.25;;;;;;;8.55;76.78;96199.87;1689320;84;21515;-84
2021/05/01 05:15:54;;;;;;;35.13;25.80;;;;;;;8.56;76.73;96205.41;1698566;84;21534;-84
2021/05/01 05:18:23;;;;;;;27.25;22.07;;;;;;;8.53;76.74;96193.54;1686031;84;21150;-84
2021/05/01 05:20:50;;;;;;;25.77;19.37;;;;;;;8.54;76.73;96197.76;1685607;84;21179;-85
2021/05/01 05:23:17;;;;;;;25.32;19.80;;;;;;;8.54;76.76;96192.47;1693108;84;21104;-85
2021/05/01 05:25:44;;;;;;;26.73;21.17;;;;;;;8.53;76.87;96194.08;1701555;84;21184;-85
2021/05/01 05:28:11;;;;;;;26.40;20.37;;;;;;;8.51;76.93;96185.11;1689420;84;21692;-84
2021/05/01 05:30:39;;;;;;;26.17;20.30;;;;;;;8.54;77.07;96194.33;1700661;83;21194;-85
2021/05/01 05:33:06;;;;;;;24.75;19.12;;;;;;;8.51;76.85;96194.89;1690479;84;21169;-84
2021/05/01 05:35:33;;;;;;;26.05;20.65;;;;;;;8.44;76.97;96198.34;1695528;84;21187;-84
2021/05/01 05:38:01;;;;;;;31.07;22.48;;;;;;;8.37;77.13;96194.70;1696180;84;21534;-85
2021/05/01 05:40:29;;;;;;;26.70;21.37;;;;;;;8.23;77.27;96195.81;1694235;84;21178;-84
2021/05/01 05:42:57;;;;;;;27.70;21.57;;;;;;;8.20;77.73;96196.90;1691781;84;21125;-85
2021/05/01 05:45:26;;;;;;;25.52;20.62;;;;;;;8.16;77.77;96196.63;1694253;84;21153;-85
2021/05/01 05:47:54;;;;;;;26.55;22.25;;;;;;;8.22;77.97;96203.48;1687780;84;21535;-84
2021/05/01 05:50:23;;;;;;;31.35;24.25;;;;;;;8.07;78.38;96215.97;1698028;83;21116;-84
2021/05/01 05:52:50;;;;;;;33.20;24.85;;;;;;;7.79;78.89;96210.81;1739513;81;21137;-85
2021/05/01 05:55:17;;;;;;;32.63;25.65;;;;;;;7.65;78.81;96214.02;1747536;81;21147;-85
2021/05/01 05:57:51;;;;;;;33.85;26.62;;;;;;;7.69;79.03;96205.82;1665019;86;21587;-84
2021/05/01 06:00:21;;;;;;;34.13;25.75;;;;;;;7.78;79.15;96198.15;1670396;86;21182;-84
2021/05/01 06:02:49;;;;;;;35.25;25.92;;;;;;;7.85;79.32;96200.48;1684020;85;21195;-84
2021/05/01 06:05:27;;;;;;;33.10;25.80;;;;;;;7.66;79.68;96201.09;1682276;85;21150;-84
2021/05/01 06:08:00;;;;;;;34.23;26.48;;;;;;;7.64;79.92;96198.46;1674175;85;21505;-84
2021/05/01 06:10:31;;;;;;;36.83;28.38;;;;;;;7.63;80.07;96195.56;1665191;85;21114;-84
2021/05/01 06:13:03;;;;;;;36.85;26.80;;;;;;;7.54;80.11;96201.12;1686082;85;21243;-84
2021/05/01 06:15:31;;;;;;;38.05;28.92;;;;;;;7.39;80.82;96204.59;1692699;84;22185;-84
2021/05/01 06:18:01;;;;;;;36.30;28.60;;;;;;;7.38;80.72;96205.13;1710166;83;21151;-84
2021/05/01 06:20:30;;;;;;;38.38;29.05;;;;;;;7.65;80.94;96209.27;1719364;82;21308;-84
2021/05/01 06:22:59;;;;;;;39.27;28.90;;;;;;;7.93;81.11;96209.96;1726959;83;21119;-84
2021/05/01 06:25:28;;;;;;;34.83;27.98;;;;;;;8.30;81.12;96207.38;1694004;83;21196;-84
2021/05/01 06:27:56;;;;;;;37.10;28.15;;;;;;;8.53;80.61;96214.67;1721744;82;21119;-84
2021/05/01 06:30:25;;;;;;;35.75;26.57;;;;;;;8.70;80.10;96214.29;1736648;82;21131;-84
2021/05/01 06:32:52;;;;;;;36.20;26.65;;;;;;;8.81;79.63;96209.73;1709581;83;21167;-84
2021/05/01 06:35:21;;;;;;;37.70;28.55;;;;;;;8.76;79.13;96215.85;1712170;82;21500;-84
2021/05/01 06:37:51;;;;;;;36.23;28.17;;;;;;;8.34;78.98;96204.50;1710960;83;21123;-84
2021/05/01 06:40:22;;;;;;;40.08;28.73;;;;;;;7.98;79.34;96205.18;1723398;83;21212;-84
2021/05/01 06:43:01;;;;;;;39.33;28.32;;;;;;;7.90;80.11;96208.40;1732937;82;21118;-84
2021/05/01 06:45:28;;;;;;;40.45;28.40;;;;;;;7.79;80.21;96201.58;1715705;83;21575;-84
2021/05/01 06:48:09;;;;;;;38.88;29.32;;;;;;;7.74;80.46;96194.45;1721877;82;21103;-85
2021/05/01 06:50:40;;;;;;;39.95;30.52;;;;;;;7.75;80.51;96196.05;1726037;82;21174;-84
2021/05/01 06:53:07;;;;;;;44.45;32.00;;;;;;;7.71;80.47;96200.27;1726965;83;21103;-84
2021/05/01 06:55:35;;;;;;;40.58;28.67;;;;;;;7.79;80.89;96201.58;1708032;83;21151;-84
2021/05/01 06:58:04;;;;;;;38.75;27.65;;;;;;;7.88;80.90;96202.58;1714977;83;22134;-84
2021/05/01 07:00:32;;;;;;;42.70;31.87;;;;;;;8.01;80.98;96199.34;1729736;82;21140;-84
2021/05/01 07:03:06;;;;;;;44.83;30.75;;;;;;;7.99;80.70;96202.80;1726729;83;21103;-85
2021/05/01 07:05:35;;;;;;;40.40;32.00;;;;;;;8.05;80.82;96199.09;1722174;82;21190;-85
2021/05/01 07:08:03;;;;;;;44.05;30.60;;;;;;;8.17;80.94;96198.23;1710479;83;21123;-85
2021/05/01 07:10:31;;;;;;;41.68;30.57;;;;;;;8.38;80.90;96200.25;1722728;82;21187;-84
2021/05/01 07:13:00;;;;;;;41.20;29.45;;;;;;;8.62;80.77;96204.33;1721315;82;21099;-85
2021/05/01 07:15:27;;;;;;;40.45;29.87;;;;;;;8.72;80.32;96210.05;1731579;81;21133;-84
2021/05/01 07:17:55;;;;;;;46.68;31.60;;;;;;;8.79;79.96;96211.86;1724675;82;21117;-84
2021/05/01 07:20:24;;;;;;;43.60;29.67;;;;;;;8.92;79.84;96209.38;1715978;83;21151;-84
2021/05/01 07:22:54;;;;;;;40.98;30.05;;;;;;;8.99;79.52;96203.75;1722625;83;21161;-84
2021/05/01 07:25:22;;;;;;;43.13;30.20;;;;;;;9.07;79.44;96199.20;1722218;83;21151;-84
2021/05/01 07:27:57;;;;;;;44.38;30.68;;;;;;;9.25;79.45;96196.39;1726857;83;21132;-84
2021/05/01 07:30:28;;;;;;;42.33;30.23;;;;;;;9.30;79.04;96196.89;1719621;82;21180;-85
2021/05/01 07:33:07;;;;;;;41.13;30.23;;;;;;;9.56;79.42;96190.24;1717622;83;21487;-85
2021/05/01 07:35:37;;;;;;;42.67;31.68;;;;;;;9.84;79.31;96189.92;1709194;83;21184;-84
2021/05/01 07:38:13;;;;;;;41.55;30.20;;;;;;;10.12;79.06;96187.71;1727237;83;21507;-85
2021/05/01 07:40:41;;;;;;;43.30;31.45;;;;;;;10.33;78.39;96187.48;1726690;82;21122;-85
2021/05/01 07:43:13;;;;;;;43.98;31.62;;;;;;;10.29;77.80;96189.92;1726990;82;21560;-84
2021/05/01 07:45:41;;;;;;;41.20;30.40;;;;;;;10.53;78.33;96187.72;1726425;82;21490;-85
2021/05/01 07:48:14;;;;;;;41.58;30.88;;;;;;;10.83;77.96;96189.90;1719873;82;21176;-85
2021/05/01 07:50:43;;;;;;;43.98;31.07;;;;;;;11.12;77.16;96192.38;1727420;82;21502;-85
2021/05/01 07:53:12;;;;;;;41.25;30.68;;;;;;;11.32;76.69;96193.88;1720660;83;21111;-85
2021/05/01 07:55:40;;;;;;;45.25;32.58;;;;;;;11.44;76.27;96184.11;1729015;81;21126;-85
2021/05/01 07:58:08;;;;;;;41.88;31.12;;;;;;;11.40;75.10;96181.27;1717281;83;21150;-85
2021/05/01 08:00:35;;;;;;;45.05;33.38;;;;;;;11.58;75.58;96179.06;1729016;82;21498;-85
2021/05/01 08:03:05;;;;;;;39.53;29.80;;;;;;;11.91;75.40;96179.52;1729269;82;21829;-85
2021/05/01 08:05:32;;;;;;;40.73;29.75;;;;;;;12.18;75.78;96179.48;1732974;81;21514;-85
2021/05/01 08:07:59;;;;;;;39.65;29.55;;;;;;;12.75;75.98;96178.47;1736241;81;21260;-85
2021/05/01 08:10:27;;;;;;;42.58;29.85;;;;;;;13.42;75.05;96178.98;1733547;81;21110;-85
2021/05/01 08:12:54;;;;;;;39.25;27.07;;;;;;;13.28;73.00;96180.40;1737868;81;21512;-85
2021/05/01 08:15:22;;;;;;;38.17;26.97;;;;;;;13.41;73.30;96182.19;1726892;81;21155;-85
2021/05/01 08:17:49;;;;;;;35.75;26.10;;;;;;;13.66;72.41;96184.18;1729625;81;21130;-85
2021/05/01 08:20:16;;;;;;;33.63;25.40;;;;;;;13.91;71.68;96178.68;1733129;83;21158;-85
2021/05/01 08:22:43;;;;;;;34.55;24.67;;;;;;;13.71;70.76;96181.92;1735941;81;21276;-85
2021/05/01 08:25:12;;;;;;;32.95;24.95;;;;;;;14.05;71.51;96177.77;1735673;81;21187;-85
2021/05/01 08:27:40;;;;;;;34.25;25.08;;;;;;;14.75;70.50;96172.76;1735931;81;21139;-85
2021/05/01 08:30:14;;;;;;;33.67;25.45;;;;;;;15.05;69.52;96177.11;1735395;81;21162;-85
2021/05/01 08:32:40;;;;;;;30.12;22.95;;;;;;;15.84;69.18;96179.02;1719913;81;21140;-85
2021/05/01 08:35:08;;;;;;;30.50;24.65;;;;;;;17.34;67.97;96181.29;1721146;81;21128;-85
2021/05/01 08:37:35;;;;;;;31.85;25.55;;;;;;;17.66;64.75;96176.42;1721518;83;21130;-85
2021/05/01 08:40:05;;;;;;;32.58;25.92;;;;;;;18.14;63.67;96180.23;1731878;81;21632;-85
2021/05/01 08:42:32;;;;;;;28.35;23.98;;;;;;;18.84;63.65;96182.13;1654022;86;21179;-86
2021/05/01 08:45:07;;;;;;;25.32;20.95;;;;;;;20.94;64.05;96178.31;1650643;86;21514;-83
2021/05/01 08:47:43;;;;;;;25.97;22.13;;;;;;;23.38;60.05;96166.98;1663149;84;21144;-82
2021/05/01 08:50:31;;;;;;;24.18;20.05;;;;;;;24.94;57.73;96166.54;1658432;86;21102;-83
2021/05/01 08:53:01;;;;;;;24.07;19.05;;;;;;;25.04;53.88;96160.38;1656903;86;21476;-84
2021/05/01 08:55:34;;;;;;;23.80;19.23;;;;;;;25.92;53.14;96151.45;1659645;84;21197;-84
2021/05/01 08:58:05;;;;;;;25.10;21.02;;;;;;;24.78;44.17;96168.22;1670456;84;21616;-84
2021/05/01 09:00:34;;;;;;;30.88;22.25;;;;;;;23.18;48.99;96168.88;1673262;85;21186;-84
2021/05/01 09:03:05;;;;;;;25.82;21.17;;;;;;;22.29;50.53;96175.28;1669433;86;21542;-83
2021/05/01 09:05:35;;;;;;;25.65;20.08;;;;;;;22.34;51.08;96187.11;1668528;84;21622;-83
2021/05/01 09:08:06;;;;;;;28.10;21.42;;;;;;;22.08;51.47;96185.75;1651683;86;21205;-83
2021/05/01 09:10:41;;;;;;;;;;;;;;;21.93;51.16;96189.55;1669351;86;21191;-82
2021/05/01 09:13:19;;;;;;;31.10;23.90;;;;;;;21.32;51.48;96184.27;1660797;84;20341;-84
2021/05/01 09:16:05;;;;;;;29.32;22.25;;;;;;;20.57;50.47;96195.47;1660022;86;21115;-83
2021/05/01 09:18:57;;;;;;;30.77;23.25;;;;;;;18.40;51.76;96209.39;1678027;84;21332;-83
2021/05/01 09:21:28;;;;;;;34.13;25.65;;;;;;;16.87;55.26;96204.33;1674937;85;21525;-82
2021/05/01 09:23:56;;;;;;;30.25;22.87;;;;;;;16.07;57.27;96192.91;1675136;85;21151;-82
2021/05/01 09:26:40;;;;;;;32.53;22.60;;;;;;;15.70;58.77;96192.05;1675018;85;21720;-83
2021/05/01 09:29:09;;;;;;;33.33;24.45;;;;;;;15.63;60.44;96199.02;1674810;84;21666;-82
2021/05/01 09:31:47;;;;;;;33.50;25.37;;;;;;;15.17;61.69;96201.05;1674847;85;21278;-83
2021/05/01 09:34:16;;;;;;;31.50;24.00;;;;;;;14.80;62.21;96201.42;1674920;86;21511;-82
2021/05/01 09:36:46;;;;;;;37.35;26.95;;;;;;;14.67;63.73;96205.03;1675119;85;21183;-82
2021/05/01 09:39:14;;;;;;;35.03;26.33;;;;;;;14.48;64.17;96205.86;1679882;84;21176;-83
2021/05/01 09:41:45;;;;;;;27.55;20.62;;;;;;;14.38;64.85;96207.48;1675115;86;21187;-83
2021/05/01 09:44:16;;;;;;;35.78;26.23;;;;;;;14.46;65.48;96213.39;1675049;86;21177;-84
2021/05/01 09:46:53;;;;;;;33.50;26.35;;;;;;;14.31;65.40;96210.60;1674871;85;21298;-83
2021/05/01 09:49:32;;;;;;;30.48;24.47;;;;;;;14.40;65.71;96199.41;1675037;84;21161;-82
2021/05/01 09:52:16;;;;;;;33.38;24.12;;;;;;;14.69;65.90;96201.49;1674896;86;21147;-82
2021/05/01 09:54:46;;;;;;;37.58;25.88;;;;;;;14.52;65.85;96200.16;1675041;85;21133;-81
2021/05/01 09:57:17;;;;;;;36.53;27.75;;;;;;;14.46;66.30;96198.73;1675338;85;21217;-82
2021/05/01 09:59:52;;;;;;;38.60;30.45;;;;;;;14.55;66.41;96204.86;1675020;84;21163;-83
2021/05/01 10:02:24;;;;;;;37.03;29.75;;;;;;;14.45;66.31;96197.16;1674818;85;21148;-82
2021/05/01 10:05:13;;;;;;;35.43;27.62;;;;;;;14.46;66.17;96212.06;1674974;85;21505;-82
2021/05/01 10:07:50;;;;;;;36.25;29.52;;;;;;;14.03;67.53;96206.62;1674844;85;21160;-82
2021/05/01 10:10:18;;;;;;;37.17;29.18;;;;;;;13.60;67.96;96205.92;1674783;84;21682;-82
2021/05/01 10:12:46;;;;;;;40.43;31.12;;;;;;;13.20;68.58;96209.86;1674960;85;21666;-81
2021/05/01 10:15:24;;;;;;;36.13;29.80;;;;;;;13.04;69.05;96199.32;1674716;85;21171;-81
2021/05/01 10:17:52;;;;;;;37.88;29.98;;;;;;;13.02;70.23;96195.64;1674362;86;21176;-83
2021/05/01 10:20:21;;;;;;;36.73;29.18;;;;;;;12.86;70.87;96197.64;1674717;84;21571;-82
2021/05/01 10:22:51;;;;;;;42.60;34.35;;;;;;;12.61;72.26;96185.71;1674860;86;21314;-82
2021/05/01 10:25:26;;;;;;;36.50;29.60;;;;;;;12.58;72.27;96184.99;1674804;85;21310;-82
2021/05/01 10:28:03;;;;;;;38.98;30.17;;;;;;;12.53;73.28;96181.09;1674818;85;21415;-82
2021/05/01 10:30:40;;;;;;;41.37;32.15;;;;;;;12.83;73.31;96178.30;1674888;84;21187;-82
2021/05/01 10:33:24;;;;;;;39.13;30.08;;;;;;;13.23;72.49;96179.18;1674924;85;21573;-82
2021/05/01 10:36:02;;;;;;;39.05;29.67;;;;;;;13.56;72.14;96171.12;1668027;85;21176;-82
2021/05/01 10:38:31;;;;;;;37.65;31.17;;;;;;;13.81;71.29;96184.31;1675099;84;21503;-82
2021/05/01 10:41:02;;;;;;;35.10;28.40;;;;;;;13.75;70.36;96186.08;1674680;85;21200;-82
2021/05/01 10:43:32;;;;;;;36.58;29.63;;;;;;;13.74;70.73;96179.18;1675036;85;21291;-82
2021/05/01 10:46:06;;;;;;;36.83;29.65;;;;;;;13.81;70.27;96189.64;1675410;86;21140;-82
2021/05/01 10:48:47;;;;;;;36.98;30.20;;;;;;;13.80;69.53;96185.95;1674750;84;21151;-82
2021/05/01 10:51:19;;;;;;;35.68;28.67;;;;;;;13.66;69.58;96195.39;1674849;85;21306;-82
2021/05/01 10:53:50;;;;;;;38.33;31.97;;;;;;;13.33;69.55;96196.23;1674805;85;21290;-82
2021/05/01 10:56:22;;;;;;;41.37;30.75;;;;;;;13.13;70.25;96184.75;1675069;85;21294;-81
2021/05/01 10:58:50;;;;;;;35.35;29.67;;;;;;;13.32;70.04;96194.12;1673153;84;21670;-82
2021/05/01 11:01:36;;;;;;;40.70;32.93;;;;;;;12.97;69.90;96194.44;1674420;86;21156;-82
2021/05/01 11:04:08;;;;;;;39.65;32.63;;;;;;;12.64;70.67;96198.41;1674871;85;21658;-82
2021/05/01 11:06:46;;;;;;;38.53;31.68;;;;;;;12.72;71.54;96199.02;1674933;85;21555;-82
2021/05/01 11:09:33;;;;;;;40.65;30.85;;;;;;;12.66;72.05;96193.02;1674713;84;21567;-82
2021/05/01 11:12:01;;;;;;;41.08;32.70;;;;;;;12.40;73.14;96185.39;1674360;85;21151;-82
2021/05/01 11:14:32;;;;;;;43.75;34.03;;;;;;;12.21;74.04;96184.19;1674740;85;21144;-81
2021/05/01 11:17:13;;;;;;;43.38;33.88;;;;;;;12.04;75.02;96187.47;1674804;85;21144;-81
2021/05/01 11:19:47;;;;;;;44.88;34.73;;;;;;;12.10;75.41;96180.95;1674713;84;21532;-82
2021/05/01 11:22:21;;;;;;;45.05;34.20;;;;;;;12.02;75.38;96188.86;1674762;85;21298;-82
2021/05/01 11:24:49;;;;;;;44.60;33.33;;;;;;;12.00;75.95;96192.36;1675015;86;21453;-83
2021/05/01 11:27:16;;;;;;;43.63;32.15;;;;;;;11.91;76.38;96182.17;1675049;85;21136;-83
2021/05/01 11:29:44;;;;;;;45.90;34.43;;;;;;;11.90;77.06;96176.08;1679820;84;21145;-83
2021/05/01 11:32:12;;;;;;;44.50;34.13;;;;;;;12.05;77.14;96165.67;1675028;85;21151;-83
2021/05/01 11:34:40;;;;;;;47.00;34.48;;;;;;;12.26;76.86;96163.38;1674773;85;21641;-83